Acton, Texas
Current Conditions -  °F | °C
As of 12:55 PM on Monday 20 Oct 2014 (Local Time) from KGDJ Reporting Station
Broken Clouds Broken Clouds  
Wind Chill: 78°   Ceiling: 3300
Heat Index: 80°   Visibility: 10mi
Dew Point: 62°   Wind: 0mph
Humidity: 57%   Direction: NA
Pressure: 30.08"   Gusts: NA
Location:  32.4693°N, 97.7085°W
Report Text: KGDJ 201755Z AUTO 00000KT 10SM BKN033 26/17 A3008 RMK AO2 T02580166 10261 20149
Loading
Personal Weather Stations






























Interactive Weather Map
Tropical Storm Tracking
New forecast layout! Learn more

10-Day Weather Forecast

Advertisements
Track Severe Weather on mobile